sensor_id;sensor_type;location;lat;lon;timestamp;P1;durP1;ratioP1;P2;durP2;ratioP2
1026;SDS011;502;48.746;9.214;2022-10-13T00:01:51;19.83;;;12.43;;
1026;SDS011;502;48.746;9.214;2022-10-13T00:04:19;14.60;;;12.17;;
1026;SDS011;502;48.746;9.214;2022-10-13T00:06:46;17.17;;;12.13;;
1026;SDS011;502;48.746;9.214;2022-10-13T00:09:12;15.43;;;11.20;;
1026;SDS011;502;48.746;9.214;2022-10-13T00:11:39;17.80;;;12.23;;
1026;SDS011;502;48.746;9.214;2022-10-13T00:14:05;13.77;;;11.50;;
1026;SDS011;502;48.746;9.214;2022-10-13T00:16:34;17.17;;;11.93;;
1026;SDS011;502;48.746;9.214;2022-10-13T00:19:00;15.07;;;11.90;;
1026;SDS011;502;48.746;9.214;2022-10-13T00:21:28;16.30;;;11.93;;
1026;SDS011;502;48.746;9.214;2022-10-13T00:23:55;14.23;;;10.80;;
1026;SDS011;502;48.746;9.214;2022-10-13T00:26:23;17.00;;;11.77;;
1026;SDS011;502;48.746;9.214;2022-10-13T00:28:51;13.83;;;11.00;;
1026;SDS011;502;48.746;9.214;2022-10-13T00:31:18;19.70;;;12.30;;
1026;SDS011;502;48.746;9.214;2022-10-13T00:33:45;16.43;;;12.20;;
1026;SDS011;502;48.746;9.214;2022-10-13T00:36:14;17.97;;;12.60;;
1026;SDS011;502;48.746;9.214;2022-10-13T00:38:42;18.00;;;12.47;;
1026;SDS011;502;48.746;9.214;2022-10-13T00:41:09;21.50;;;14.47;;
1026;SDS011;502;48.746;9.214;2022-10-13T00:43:52;20.33;;;15.33;;
1026;SDS011;502;48.746;9.214;2022-10-13T00:46:24;22.07;;;15.07;;
1026;SDS011;502;48.746;9.214;2022-10-13T00:48:58;17.70;;;13.70;;
1026;SDS011;502;48.746;9.214;2022-10-13T00:51:26;20.70;;;13.43;;
1026;SDS011;502;48.746;9.214;2022-10-13T00:53:57;17.70;;;12.80;;
1026;SDS011;502;48.746;9.214;2022-10-13T00:56:24;17.90;;;13.43;;
1026;SDS011;502;48.746;9.214;2022-10-13T00:58:51;20.40;;;14.67;;
1026;SDS011;502;48.746;9.214;2022-10-13T01:01:18;21.30;;;15.07;;
1026;SDS011;502;48.746;9.214;2022-10-13T01:03:45;21.77;;;13.03;;
1026;SDS011;502;48.746;9.214;2022-10-13T01:06:12;22.77;;;14.33;;
1026;SDS011;502;48.746;9.214;2022-10-13T01:08:39;18.20;;;13.63;;
1026;SDS011;502;48.746;9.214;2022-10-13T01:11:11;23.97;;;14.87;;
1026;SDS011;502;48.746;9.214;2022-10-13T01:13:48;24.30;;;16.20;;
1026;SDS011;502;48.746;9.214;2022-10-13T01:16:18;20.17;;;15.27;;
1026;SDS011;502;48.746;9.214;2022-10-13T01:18:51;19.30;;;14.60;;
1026;SDS011;502;48.746;9.214;2022-10-13T01:21:23;19.03;;;15.17;;
1026;SDS011;502;48.746;9.214;2022-10-13T01:24:12;17.50;;;14.20;;
1026;SDS011;502;48.746;9.214;2022-10-13T01:27:00;21.60;;;15.33;;
1026;SDS011;502;48.746;9.214;2022-10-13T01:32:18;18.23;;;13.60;;
1026;SDS011;502;48.746;9.214;2022-10-13T01:34:57;23.47;;;14.47;;
1026;SDS011;502;48.746;9.214;2022-10-13T01:37:27;18.77;;;15.30;;
1026;SDS011;502;48.746;9.214;2022-10-13T01:39:56;23.03;;;14.57;;
1026;SDS011;502;48.746;9.214;2022-10-13T01:42:29;23.70;;;15.30;;
1026;SDS011;502;48.746;9.214;2022-10-13T01:45:01;24.40;;;16.13;;
1026;SDS011;502;48.746;9.214;2022-10-13T01:47:29;23.60;;;14.90;;
1026;SDS011;502;48.746;9.214;2022-10-13T01:49:57;19.13;;;14.83;;
1026;SDS011;502;48.746;9.214;2022-10-13T01:52:25;18.40;;;14.57;;
1026;SDS011;502;48.746;9.214;2022-10-13T01:54:53;19.70;;;15.43;;
1026;SDS011;502;48.746;9.214;2022-10-13T01:57:29;17.97;;;14.20;;
1026;SDS011;502;48.746;9.214;2022-10-13T01:59:57;21.13;;;14.23;;
1026;SDS011;502;48.746;9.214;2022-10-13T02:02:27;21.73;;;14.40;;
1026;SDS011;502;48.746;9.214;2022-10-13T02:05:00;22.77;;;17.30;;
1026;SDS011;502;48.746;9.214;2022-10-13T02:07:33;19.60;;;15.43;;
1026;SDS011;502;48.746;9.214;2022-10-13T02:10:04;19.20;;;14.27;;
1026;SDS011;502;48.746;9.214;2022-10-13T02:12:35;23.77;;;17.33;;
1026;SDS011;502;48.746;9.214;2022-10-13T02:15:05;26.30;;;15.57;;
1026;SDS011;502;48.746;9.214;2022-10-13T02:17:35;23.43;;;14.80;;
1026;SDS011;502;48.746;9.214;2022-10-13T02:20:03;25.17;;;16.93;;
1026;SDS011;502;48.746;9.214;2022-10-13T02:22:35;22.50;;;16.30;;
1026;SDS011;502;48.746;9.214;2022-10-13T02:25:04;31.73;;;17.67;;
1026;SDS011;502;48.746;9.214;2022-10-13T02:27:31;27.03;;;15.50;;
1026;SDS011;502;48.746;9.214;2022-10-13T02:29:58;22.60;;;15.30;;
1026;SDS011;502;48.746;9.214;2022-10-13T02:32:27;24.00;;;15.10;;
1026;SDS011;502;48.746;9.214;2022-10-13T02:34:55;23.53;;;14.77;;
1026;SDS011;502;48.746;9.214;2022-10-13T02:37:22;22.10;;;14.40;;
1026;SDS011;502;48.746;9.214;2022-10-13T02:39:50;20.27;;;14.00;;
1026;SDS011;502;48.746;9.214;2022-10-13T02:42:18;24.70;;;15.70;;
1026;SDS011;502;48.746;9.214;2022-10-13T02:44:44;21.20;;;14.77;;
1026;SDS011;502;48.746;9.214;2022-10-13T02:47:11;23.47;;;15.23;;
1026;SDS011;502;48.746;9.214;2022-10-13T02:49:38;20.10;;;15.10;;
1026;SDS011;502;48.746;9.214;2022-10-13T02:52:06;22.87;;;15.20;;
1026;SDS011;502;48.746;9.214;2022-10-13T02:54:36;21.67;;;16.90;;
1026;SDS011;502;48.746;9.214;2022-10-13T02:57:02;24.80;;;16.73;;
1026;SDS011;502;48.746;9.214;2022-10-13T02:59:29;21.70;;;14.77;;
1026;SDS011;502;48.746;9.214;2022-10-13T03:01:56;20.60;;;14.17;;
1026;SDS011;502;48.746;9.214;2022-10-13T03:04:24;22.00;;;15.30;;
1026;SDS011;502;48.746;9.214;2022-10-13T03:06:52;22.87;;;14.03;;
1026;SDS011;502;48.746;9.214;2022-10-13T03:09:20;22.73;;;14.57;;
1026;SDS011;502;48.746;9.214;2022-10-13T03:11:47;16.80;;;13.50;;
1026;SDS011;502;48.746;9.214;2022-10-13T03:14:13;22.70;;;15.00;;
1026;SDS011;502;48.746;9.214;2022-10-13T03:16:40;20.70;;;15.30;;
1026;SDS011;502;48.746;9.214;2022-10-13T03:19:08;18.93;;;15.97;;
1026;SDS011;502;48.746;9.214;2022-10-13T03:21:35;21.80;;;14.50;;
1026;SDS011;502;48.746;9.214;2022-10-13T03:24:02;21.27;;;14.27;;
1026;SDS011;502;48.746;9.214;2022-10-13T03:26:31;22.93;;;15.73;;
1026;SDS011;502;48.746;9.214;2022-10-13T03:28:57;19.27;;;15.00;;
1026;SDS011;502;48.746;9.214;2022-10-13T03:31:24;19.47;;;14.13;;
1026;SDS011;502;48.746;9.214;2022-10-13T03:33:58;20.43;;;14.37;;
1026;SDS011;502;48.746;9.214;2022-10-13T03:36:25;18.40;;;13.40;;
1026;SDS011;502;48.746;9.214;2022-10-13T03:38:52;17.73;;;14.00;;
1026;SDS011;502;48.746;9.214;2022-10-13T03:41:18;25.10;;;15.63;;
1026;SDS011;502;48.746;9.214;2022-10-13T03:43:49;15.90;;;13.17;;
1026;SDS011;502;48.746;9.214;2022-10-13T03:46:17;18.57;;;14.43;;
1026;SDS011;502;48.746;9.214;2022-10-13T03:48:44;21.17;;;14.83;;
1026;SDS011;502;48.746;9.214;2022-10-13T03:51:11;22.27;;;15.00;;
1026;SDS011;502;48.746;9.214;2022-10-13T03:53:47;22.33;;;13.80;;
1026;SDS011;502;48.746;9.214;2022-10-13T03:56:15;18.43;;;13.90;;
1026;SDS011;502;48.746;9.214;2022-10-13T03:58:50;20.57;;;13.83;;
1026;SDS011;502;48.746;9.214;2022-10-13T04:01:18;21.47;;;15.13;;
1026;SDS011;502;48.746;9.214;2022-10-13T04:03:46;16.37;;;14.20;;
1026;SDS011;502;48.746;9.214;2022-10-13T04:06:13;22.13;;;14.17;;
1026;SDS011;502;48.746;9.214;2022-10-13T04:08:40;16.77;;;13.23;;
1026;SDS011;502;48.746;9.214;2022-10-13T04:11:08;17.50;;;13.50;;
1026;SDS011;502;48.746;9.214;2022-10-13T04:13:38;15.60;;;11.30;;
1026;SDS011;502;48.746;9.214;2022-10-13T04:16:08;15.97;;;12.57;;
1026;SDS011;502;48.746;9.214;2022-10-13T04:18:37;18.00;;;12.80;;
1026;SDS011;502;48.746;9.214;2022-10-13T04:21:06;15.27;;;11.17;;
1026;SDS011;502;48.746;9.214;2022-10-13T04:23:33;16.03;;;11.83;;
1026;SDS011;502;48.746;9.214;2022-10-13T04:26:00;17.07;;;13.43;;
1026;SDS011;502;48.746;9.214;2022-10-13T04:28:26;17.40;;;11.97;;
1026;SDS011;502;48.746;9.214;2022-10-13T04:30:53;15.67;;;11.50;;
1026;SDS011;502;48.746;9.214;2022-10-13T04:33:21;14.80;;;12.33;;
1026;SDS011;502;48.746;9.214;2022-10-13T04:35:48;15.13;;;11.50;;
1026;SDS011;502;48.746;9.214;2022-10-13T04:38:14;19.90;;;12.40;;
1026;SDS011;502;48.746;9.214;2022-10-13T04:40:41;16.87;;;12.40;;
1026;SDS011;502;48.746;9.214;2022-10-13T04:43:08;15.40;;;11.17;;
1026;SDS011;502;48.746;9.214;2022-10-13T04:45:34;15.57;;;12.40;;
1026;SDS011;502;48.746;9.214;2022-10-13T04:48:01;14.37;;;12.40;;
1026;SDS011;502;48.746;9.214;2022-10-13T04:50:29;15.87;;;12.57;;
1026;SDS011;502;48.746;9.214;2022-10-13T04:52:58;18.07;;;12.13;;
1026;SDS011;502;48.746;9.214;2022-10-13T04:55:25;15.17;;;12.03;;
1026;SDS011;502;48.746;9.214;2022-10-13T04:57:52;17.77;;;12.17;;
1026;SDS011;502;48.746;9.214;2022-10-13T05:00:19;15.83;;;11.73;;
1026;SDS011;502;48.746;9.214;2022-10-13T05:02:45;15.90;;;13.17;;
1026;SDS011;502;48.746;9.214;2022-10-13T05:05:12;16.30;;;12.57;;
1026;SDS011;502;48.746;9.214;2022-10-13T05:07:40;17.30;;;12.00;;
1026;SDS011;502;48.746;9.214;2022-10-13T05:10:07;18.47;;;13.77;;
1026;SDS011;502;48.746;9.214;2022-10-13T05:12:34;17.70;;;12.20;;
1026;SDS011;502;48.746;9.214;2022-10-13T05:15:01;17.47;;;12.33;;
1026;SDS011;502;48.746;9.214;2022-10-13T05:17:28;17.73;;;12.43;;
1026;SDS011;502;48.746;9.214;2022-10-13T05:19:56;21.73;;;12.33;;
1026;SDS011;502;48.746;9.214;2022-10-13T05:22:23;18.53;;;12.90;;
1026;SDS011;502;48.746;9.214;2022-10-13T05:24:51;15.30;;;11.90;;
1026;SDS011;502;48.746;9.214;2022-10-13T05:27:18;18.63;;;13.20;;
1026;SDS011;502;48.746;9.214;2022-10-13T05:29:45;17.43;;;11.97;;
1026;SDS011;502;48.746;9.214;2022-10-13T05:32:12;14.70;;;11.47;;
1026;SDS011;502;48.746;9.214;2022-10-13T05:34:38;16.00;;;12.27;;
1026;SDS011;502;48.746;9.214;2022-10-13T05:37:05;17.83;;;12.17;;
1026;SDS011;502;48.746;9.214;2022-10-13T05:39:32;20.23;;;11.73;;
1026;SDS011;502;48.746;9.214;2022-10-13T05:42:00;17.77;;;12.60;;
1026;SDS011;502;48.746;9.214;2022-10-13T05:44:26;16.20;;;12.07;;
1026;SDS011;502;48.746;9.214;2022-10-13T05:46:54;15.90;;;11.53;;
1026;SDS011;502;48.746;9.214;2022-10-13T05:49:20;15.17;;;11.50;;
1026;SDS011;502;48.746;9.214;2022-10-13T05:51:48;17.27;;;12.87;;
1026;SDS011;502;48.746;9.214;2022-10-13T05:54:18;17.40;;;12.17;;
1026;SDS011;502;48.746;9.214;2022-10-13T05:56:48;19.30;;;12.87;;
1026;SDS011;502;48.746;9.214;2022-10-13T05:59:18;18.07;;;11.90;;
1026;SDS011;502;48.746;9.214;2022-10-13T06:01:46;17.60;;;11.87;;
1026;SDS011;502;48.746;9.214;2022-10-13T06:04:13;17.80;;;12.90;;
1026;SDS011;502;48.746;9.214;2022-10-13T06:06:43;19.37;;;14.53;;
1026;SDS011;502;48.746;9.214;2022-10-13T06:09:10;19.27;;;12.27;;
1026;SDS011;502;48.746;9.214;2022-10-13T06:11:37;18.30;;;12.67;;
1026;SDS011;502;48.746;9.214;2022-10-13T06:14:04;17.87;;;12.43;;
1026;SDS011;502;48.746;9.214;2022-10-13T06:19:01;18.60;;;13.43;;
1026;SDS011;502;48.746;9.214;2022-10-13T06:21:29;20.40;;;13.20;;
1026;SDS011;502;48.746;9.214;2022-10-13T06:23:56;17.47;;;13.00;;
1026;SDS011;502;48.746;9.214;2022-10-13T06:26:23;18.27;;;11.87;;
1026;SDS011;502;48.746;9.214;2022-10-13T06:28:49;19.33;;;13.63;;
1026;SDS011;502;48.746;9.214;2022-10-13T06:31:17;17.90;;;12.77;;
1026;SDS011;502;48.746;9.214;2022-10-13T06:33:45;18.20;;;13.63;;
1026;SDS011;502;48.746;9.214;2022-10-13T06:36:11;20.33;;;12.10;;
1026;SDS011;502;48.746;9.214;2022-10-13T06:38:38;16.90;;;13.07;;
1026;SDS011;502;48.746;9.214;2022-10-13T06:41:05;19.10;;;13.20;;
1026;SDS011;502;48.746;9.214;2022-10-13T06:43:34;18.43;;;12.93;;
1026;SDS011;502;48.746;9.214;2022-10-13T06:46:03;19.93;;;13.57;;
1026;SDS011;502;48.746;9.214;2022-10-13T06:48:30;16.50;;;11.77;;
1026;SDS011;502;48.746;9.214;2022-10-13T06:51:00;18.57;;;12.47;;
1026;SDS011;502;48.746;9.214;2022-10-13T06:53:27;22.40;;;15.13;;
1026;SDS011;502;48.746;9.214;2022-10-13T06:55:55;17.87;;;13.17;;
1026;SDS011;502;48.746;9.214;2022-10-13T06:58:22;15.30;;;12.10;;
1026;SDS011;502;48.746;9.214;2022-10-13T07:00:48;20.50;;;12.17;;
1026;SDS011;502;48.746;9.214;2022-10-13T07:03:15;18.67;;;12.87;;
1026;SDS011;502;48.746;9.214;2022-10-13T07:05:42;20.63;;;13.03;;
1026;SDS011;502;48.746;9.214;2022-10-13T07:08:10;18.70;;;12.90;;
1026;SDS011;502;48.746;9.214;2022-10-13T07:10:37;17.87;;;11.80;;
1026;SDS011;502;48.746;9.214;2022-10-13T07:13:04;21.07;;;13.87;;
1026;SDS011;502;48.746;9.214;2022-10-13T07:15:32;18.60;;;13.17;;
1026;SDS011;502;48.746;9.214;2022-10-13T07:18:00;20.00;;;13.73;;
1026;SDS011;502;48.746;9.214;2022-10-13T07:20:28;17.97;;;12.90;;
1026;SDS011;502;48.746;9.214;2022-10-13T07:22:56;17.73;;;13.00;;
1026;SDS011;502;48.746;9.214;2022-10-13T07:25:24;23.20;;;13.77;;
1026;SDS011;502;48.746;9.214;2022-10-13T07:27:51;19.27;;;13.30;;
1026;SDS011;502;48.746;9.214;2022-10-13T07:30:18;23.57;;;14.27;;
1026;SDS011;502;48.746;9.214;2022-10-13T07:32:45;15.97;;;12.00;;
1026;SDS011;502;48.746;9.214;2022-10-13T07:35:12;14.63;;;10.87;;
1026;SDS011;502;48.746;9.214;2022-10-13T07:37:39;19.37;;;11.63;;
1026;SDS011;502;48.746;9.214;2022-10-13T07:40:17;19.43;;;12.07;;
1026;SDS011;502;48.746;9.214;2022-10-13T07:42:55;17.20;;;12.90;;
1026;SDS011;502;48.746;9.214;2022-10-13T07:45:44;18.00;;;11.77;;
1026;SDS011;502;48.746;9.214;2022-10-13T07:48:10;18.53;;;11.90;;
1026;SDS011;502;48.746;9.214;2022-10-13T07:50:37;15.90;;;11.20;;
1026;SDS011;502;48.746;9.214;2022-10-13T07:56:14;19.47;;;10.80;;
1026;SDS011;502;48.746;9.214;2022-10-13T07:58:43;15.30;;;11.40;;
1026;SDS011;502;48.746;9.214;2022-10-13T08:01:11;16.13;;;11.70;;
1026;SDS011;502;48.746;9.214;2022-10-13T08:03:38;16.10;;;12.10;;
1026;SDS011;502;48.746;9.214;2022-10-13T08:06:06;17.40;;;10.63;;
1026;SDS011;502;48.746;9.214;2022-10-13T08:08:33;15.37;;;10.80;;
1026;SDS011;502;48.746;9.214;2022-10-13T08:11:00;17.40;;;10.90;;
1026;SDS011;502;48.746;9.214;2022-10-13T08:13:30;15.03;;;11.10;;
1026;SDS011;502;48.746;9.214;2022-10-13T08:16:04;16.07;;;11.67;;
1026;SDS011;502;48.746;9.214;2022-10-13T08:18:31;16.73;;;10.33;;
1026;SDS011;502;48.746;9.214;2022-10-13T08:20:58;16.23;;;10.13;;
1026;SDS011;502;48.746;9.214;2022-10-13T08:23:26;16.67;;;10.60;;
1026;SDS011;502;48.746;9.214;2022-10-13T08:25:53;14.70;;;10.20;;
1026;SDS011;502;48.746;9.214;2022-10-13T08:28:20;14.03;;;9.80;;
1026;SDS011;502;48.746;9.214;2022-10-13T08:30:48;15.43;;;11.20;;
1026;SDS011;502;48.746;9.214;2022-10-13T08:33:17;16.87;;;9.30;;
1026;SDS011;502;48.746;9.214;2022-10-13T08:35:44;14.43;;;9.90;;
1026;SDS011;502;48.746;9.214;2022-10-13T08:38:11;13.00;;;9.67;;
1026;SDS011;502;48.746;9.214;2022-10-13T08:40:38;10.57;;;8.47;;
1026;SDS011;502;48.746;9.214;2022-10-13T08:43:10;16.53;;;8.73;;
1026;SDS011;502;48.746;9.214;2022-10-13T08:45:43;13.43;;;8.83;;
1026;SDS011;502;48.746;9.214;2022-10-13T08:48:21;12.63;;;9.60;;
1026;SDS011;502;48.746;9.214;2022-10-13T08:51:00;12.47;;;9.27;;
1026;SDS011;502;48.746;9.214;2022-10-13T08:54:00;10.67;;;8.30;;
1026;SDS011;502;48.746;9.214;2022-10-13T08:59:16;10.97;;;8.77;;
1026;SDS011;502;48.746;9.214;2022-10-13T09:02:04;12.13;;;8.87;;
1026;SDS011;502;48.746;9.214;2022-10-13T09:04:47;12.43;;;9.87;;
1026;SDS011;502;48.746;9.214;2022-10-13T09:07:17;14.23;;;11.00;;
1026;SDS011;502;48.746;9.214;2022-10-13T09:09:48;12.40;;;9.43;;
1026;SDS011;502;48.746;9.214;2022-10-13T09:12:17;12.43;;;9.90;;
1026;SDS011;502;48.746;9.214;2022-10-13T09:14:56;14.70;;;8.60;;
1026;SDS011;502;48.746;9.214;2022-10-13T09:17:25;13.20;;;8.67;;
1026;SDS011;502;48.746;9.214;2022-10-13T09:19:59;10.70;;;8.40;;
1026;SDS011;502;48.746;9.214;2022-10-13T09:22:27;10.17;;;7.97;;
1026;SDS011;502;48.746;9.214;2022-10-13T09:25:08;14.03;;;8.50;;
1026;SDS011;502;48.746;9.214;2022-10-13T09:27:41;15.33;;;7.90;;
1026;SDS011;502;48.746;9.214;2022-10-13T09:30:29;12.00;;;9.10;;
1026;SDS011;502;48.746;9.214;2022-10-13T09:33:12;9.03;;;8.13;;
1026;SDS011;502;48.746;9.214;2022-10-13T09:35:43;12.27;;;8.10;;
1026;SDS011;502;48.746;9.214;2022-10-13T09:38:12;13.57;;;8.37;;
1026;SDS011;502;48.746;9.214;2022-10-13T09:40:41;12.20;;;8.50;;
1026;SDS011;502;48.746;9.214;2022-10-13T09:43:18;10.83;;;8.37;;
1026;SDS011;502;48.746;9.214;2022-10-13T09:45:49;15.10;;;7.83;;
1026;SDS011;502;48.746;9.214;2022-10-13T09:48:18;10.20;;;7.60;;
1026;SDS011;502;48.746;9.214;2022-10-13T09:50:48;10.60;;;7.30;;
1026;SDS011;502;48.746;9.214;2022-10-13T09:53:17;9.50;;;7.67;;
1026;SDS011;502;48.746;9.214;2022-10-13T09:55:48;9.80;;;7.47;;
1026;SDS011;502;48.746;9.214;2022-10-13T09:58:18;9.90;;;7.43;;
1026;SDS011;502;48.746;9.214;2022-10-13T10:00:48;10.37;;;7.57;;
1026;SDS011;502;48.746;9.214;2022-10-13T10:03:18;8.40;;;7.40;;
1026;SDS011;502;48.746;9.214;2022-10-13T10:05:49;16.87;;;7.50;;
1026;SDS011;502;48.746;9.214;2022-10-13T10:08:20;10.73;;;7.43;;
1026;SDS011;502;48.746;9.214;2022-10-13T10:10:51;9.23;;;6.93;;
1026;SDS011;502;48.746;9.214;2022-10-13T10:13:19;8.73;;;7.43;;
1026;SDS011;502;48.746;9.214;2022-10-13T10:15:49;10.70;;;7.20;;
1026;SDS011;502;48.746;9.214;2022-10-13T10:18:20;12.33;;;7.47;;
1026;SDS011;502;48.746;9.214;2022-10-13T10:20:55;11.30;;;8.47;;
1026;SDS011;502;48.746;9.214;2022-10-13T10:23:33;7.17;;;6.47;;
1026;SDS011;502;48.746;9.214;2022-10-13T10:26:05;6.80;;;6.20;;
1026;SDS011;502;48.746;9.214;2022-10-13T10:31:42;9.03;;;6.40;;
1026;SDS011;502;48.746;9.214;2022-10-13T10:34:23;7.27;;;6.10;;
1026;SDS011;502;48.746;9.214;2022-10-13T10:36:56;9.33;;;7.07;;
1026;SDS011;502;48.746;9.214;2022-10-13T10:39:44;7.67;;;6.20;;
1026;SDS011;502;48.746;9.214;2022-10-13T10:42:18;10.20;;;6.27;;
1026;SDS011;502;48.746;9.214;2022-10-13T10:44:57;7.70;;;6.23;;
1026;SDS011;502;48.746;9.214;2022-10-13T10:47:25;10.80;;;6.73;;
1026;SDS011;502;48.746;9.214;2022-10-13T10:49:54;10.80;;;6.93;;
1026;SDS011;502;48.746;9.214;2022-10-13T10:52:26;7.77;;;6.80;;
1026;SDS011;502;48.746;9.214;2022-10-13T10:54:56;8.07;;;7.27;;
1026;SDS011;502;48.746;9.214;2022-10-13T10:57:30;8.67;;;6.23;;
1026;SDS011;502;48.746;9.214;2022-10-13T11:00:02;7.70;;;6.47;;
1026;SDS011;502;48.746;9.214;2022-10-13T11:02:36;9.17;;;6.83;;
1026;SDS011;502;48.746;9.214;2022-10-13T11:05:09;7.83;;;7.03;;
1026;SDS011;502;48.746;9.214;2022-10-13T11:07:57;9.27;;;6.83;;
1026;SDS011;502;48.746;9.214;2022-10-13T11:10:25;8.90;;;7.43;;
1026;SDS011;502;48.746;9.214;2022-10-13T11:15:46;8.47;;;6.30;;
1026;SDS011;502;48.746;9.214;2022-10-13T11:21:17;9.73;;;6.80;;
1026;SDS011;502;48.746;9.214;2022-10-13T11:23:45;9.10;;;6.37;;
1026;SDS011;502;48.746;9.214;2022-10-13T11:26:25;13.10;;;6.90;;
1026;SDS011;502;48.746;9.214;2022-10-13T11:28:57;7.43;;;6.27;;
1026;SDS011;502;48.746;9.214;2022-10-13T11:31:26;8.87;;;6.47;;
1026;SDS011;502;48.746;9.214;2022-10-13T11:33:55;8.10;;;6.57;;
1026;SDS011;502;48.746;9.214;2022-10-13T11:36:37;11.10;;;7.00;;
1026;SDS011;502;48.746;9.214;2022-10-13T11:39:21;8.00;;;6.23;;
1026;SDS011;502;48.746;9.214;2022-10-13T11:41:59;6.00;;;5.40;;
1026;SDS011;502;48.746;9.214;2022-10-13T11:44:33;8.10;;;7.00;;
1026;SDS011;502;48.746;9.214;2022-10-13T11:47:05;7.40;;;5.93;;
1026;SDS011;502;48.746;9.214;2022-10-13T11:49:50;7.00;;;6.13;;
1026;SDS011;502;48.746;9.214;2022-10-13T11:52:32;9.13;;;6.47;;
1026;SDS011;502;48.746;9.214;2022-10-13T11:55:10;11.90;;;6.73;;
1026;SDS011;502;48.746;9.214;2022-10-13T11:57:40;8.23;;;6.13;;
1026;SDS011;502;48.746;9.214;2022-10-13T12:00:10;9.17;;;7.00;;
1026;SDS011;502;48.746;9.214;2022-10-13T12:02:46;9.00;;;6.17;;
1026;SDS011;502;48.746;9.214;2022-10-13T12:05:20;10.87;;;6.70;;
1026;SDS011;502;48.746;9.214;2022-10-13T12:07:48;10.53;;;6.37;;
1026;SDS011;502;48.746;9.214;2022-10-13T12:10:18;8.83;;;6.07;;
1026;SDS011;502;48.746;9.214;2022-10-13T12:12:53;9.07;;;5.93;;
1026;SDS011;502;48.746;9.214;2022-10-13T12:15:25;8.30;;;6.20;;
1026;SDS011;502;48.746;9.214;2022-10-13T12:17:55;7.00;;;5.97;;
1026;SDS011;502;48.746;9.214;2022-10-13T12:20:23;10.37;;;5.63;;
1026;SDS011;502;48.746;9.214;2022-10-13T12:22:51;8.90;;;6.10;;
1026;SDS011;502;48.746;9.214;2022-10-13T12:25:21;10.60;;;6.33;;
1026;SDS011;502;48.746;9.214;2022-10-13T12:27:52;8.77;;;6.00;;
1026;SDS011;502;48.746;9.214;2022-10-13T12:30:21;8.73;;;6.40;;
1026;SDS011;502;48.746;9.214;2022-10-13T12:32:49;13.57;;;6.30;;
1026;SDS011;502;48.746;9.214;2022-10-13T12:35:17;10.10;;;6.87;;
1026;SDS011;502;48.746;9.214;2022-10-13T12:37:44;9.43;;;5.90;;
1026;SDS011;502;48.746;9.214;2022-10-13T12:40:12;5.90;;;5.30;;
1026;SDS011;502;48.746;9.214;2022-10-13T12:42:40;8.37;;;5.60;;
1026;SDS011;502;48.746;9.214;2022-10-13T12:45:12;8.23;;;6.53;;
1026;SDS011;502;48.746;9.214;2022-10-13T12:47:45;9.43;;;6.10;;
1026;SDS011;502;48.746;9.214;2022-10-13T12:50:31;8.90;;;6.30;;
1026;SDS011;502;48.746;9.214;2022-10-13T12:53:10;8.83;;;5.70;;
1026;SDS011;502;48.746;9.214;2022-10-13T12:55:46;8.00;;;6.73;;
1026;SDS011;502;48.746;9.214;2022-10-13T12:58:19;7.13;;;6.43;;
1026;SDS011;502;48.746;9.214;2022-10-13T13:01:08;8.60;;;6.03;;
1026;SDS011;502;48.746;9.214;2022-10-13T13:03:44;10.20;;;5.87;;
1026;SDS011;502;48.746;9.214;2022-10-13T13:06:22;10.07;;;6.00;;
1026;SDS011;502;48.746;9.214;2022-10-13T13:12:01;6.97;;;5.80;;
1026;SDS011;502;48.746;9.214;2022-10-13T13:14:42;9.07;;;6.60;;
1026;SDS011;502;48.746;9.214;2022-10-13T13:17:12;7.70;;;5.97;;
1026;SDS011;502;48.746;9.214;2022-10-13T13:19:40;7.87;;;6.37;;
1026;SDS011;502;48.746;9.214;2022-10-13T13:22:08;7.87;;;6.30;;
1026;SDS011;502;48.746;9.214;2022-10-13T13:24:35;8.50;;;7.37;;
1026;SDS011;502;48.746;9.214;2022-10-13T13:27:14;8.87;;;6.20;;
1026;SDS011;502;48.746;9.214;2022-10-13T13:29:43;7.00;;;6.07;;
1026;SDS011;502;48.746;9.214;2022-10-13T13:32:11;10.40;;;6.70;;
1026;SDS011;502;48.746;9.214;2022-10-13T13:34:39;12.20;;;6.30;;
1026;SDS011;502;48.746;9.214;2022-10-13T13:37:08;9.40;;;6.60;;
1026;SDS011;502;48.746;9.214;2022-10-13T13:39:37;11.30;;;6.87;;
1026;SDS011;502;48.746;9.214;2022-10-13T13:42:04;9.10;;;7.20;;
1026;SDS011;502;48.746;9.214;2022-10-13T13:44:31;10.23;;;6.93;;
1026;SDS011;502;48.746;9.214;2022-10-13T13:46:59;11.43;;;7.70;;
1026;SDS011;502;48.746;9.214;2022-10-13T13:49:26;10.80;;;7.73;;
1026;SDS011;502;48.746;9.214;2022-10-13T13:51:52;10.07;;;7.00;;
1026;SDS011;502;48.746;9.214;2022-10-13T13:54:19;7.80;;;6.00;;
1026;SDS011;502;48.746;9.214;2022-10-13T13:56:45;7.87;;;5.30;;
1026;SDS011;502;48.746;9.214;2022-10-13T13:59:14;6.30;;;5.70;;
1026;SDS011;502;48.746;9.214;2022-10-13T14:01:40;8.03;;;5.40;;
1026;SDS011;502;48.746;9.214;2022-10-13T14:04:08;7.47;;;5.87;;
1026;SDS011;502;48.746;9.214;2022-10-13T14:06:35;7.00;;;6.10;;
1026;SDS011;502;48.746;9.214;2022-10-13T14:09:02;8.30;;;5.73;;
1026;SDS011;502;48.746;9.214;2022-10-13T14:11:29;8.00;;;5.53;;
1026;SDS011;502;48.746;9.214;2022-10-13T14:13:55;7.43;;;6.00;;
1026;SDS011;502;48.746;9.214;2022-10-13T14:16:25;6.17;;;5.43;;
1026;SDS011;502;48.746;9.214;2022-10-13T14:18:54;9.23;;;5.23;;
1026;SDS011;502;48.746;9.214;2022-10-13T14:21:25;8.40;;;5.50;;
1026;SDS011;502;48.746;9.214;2022-10-13T14:23:55;9.80;;;5.73;;
1026;SDS011;502;48.746;9.214;2022-10-13T14:26:22;7.23;;;6.50;;
1026;SDS011;502;48.746;9.214;2022-10-13T14:28:48;11.03;;;6.13;;
1026;SDS011;502;48.746;9.214;2022-10-13T14:31:15;6.97;;;5.90;;
1026;SDS011;502;48.746;9.214;2022-10-13T14:33:45;8.20;;;6.30;;
1026;SDS011;502;48.746;9.214;2022-10-13T14:36:11;7.80;;;6.03;;
1026;SDS011;502;48.746;9.214;2022-10-13T14:38:39;9.47;;;5.70;;
1026;SDS011;502;48.746;9.214;2022-10-13T14:41:09;9.77;;;6.23;;
1026;SDS011;502;48.746;9.214;2022-10-13T14:43:35;7.13;;;5.83;;
1026;SDS011;502;48.746;9.214;2022-10-13T14:46:02;6.93;;;5.83;;
1026;SDS011;502;48.746;9.214;2022-10-13T14:48:30;10.30;;;6.77;;
1026;SDS011;502;48.746;9.214;2022-10-13T14:50:56;7.80;;;5.33;;
1026;SDS011;502;48.746;9.214;2022-10-13T14:53:23;7.80;;;5.23;;
1026;SDS011;502;48.746;9.214;2022-10-13T14:55:52;7.87;;;5.60;;
1026;SDS011;502;48.746;9.214;2022-10-13T14:58:18;8.30;;;5.47;;
1026;SDS011;502;48.746;9.214;2022-10-13T15:00:45;8.70;;;6.47;;
1026;SDS011;502;48.746;9.214;2022-10-13T15:03:12;8.73;;;5.80;;
1026;SDS011;502;48.746;9.214;2022-10-13T15:05:39;10.50;;;6.40;;
1026;SDS011;502;48.746;9.214;2022-10-13T15:08:06;7.77;;;5.83;;
1026;SDS011;502;48.746;9.214;2022-10-13T15:10:33;8.80;;;6.03;;
1026;SDS011;502;48.746;9.214;2022-10-13T15:13:01;7.80;;;5.87;;
1026;SDS011;502;48.746;9.214;2022-10-13T15:15:28;7.73;;;5.90;;
1026;SDS011;502;48.746;9.214;2022-10-13T15:17:55;8.80;;;5.70;;
1026;SDS011;502;48.746;9.214;2022-10-13T15:20:22;12.13;;;7.63;;
1026;SDS011;502;48.746;9.214;2022-10-13T15:22:48;10.27;;;7.00;;
1026;SDS011;502;48.746;9.214;2022-10-13T15:25:17;10.40;;;6.90;;
1026;SDS011;502;48.746;9.214;2022-10-13T15:27:44;8.67;;;7.47;;
1026;SDS011;502;48.746;9.214;2022-10-13T15:30:12;13.00;;;8.20;;
1026;SDS011;502;48.746;9.214;2022-10-13T15:32:39;10.00;;;7.67;;
1026;SDS011;502;48.746;9.214;2022-10-13T15:35:06;11.10;;;8.13;;
1026;SDS011;502;48.746;9.214;2022-10-13T15:37:34;8.40;;;7.47;;
1026;SDS011;502;48.746;9.214;2022-10-13T15:40:01;10.47;;;7.07;;
1026;SDS011;502;48.746;9.214;2022-10-13T15:42:28;7.73;;;6.97;;
1026;SDS011;502;48.746;9.214;2022-10-13T15:44:54;7.90;;;7.07;;
1026;SDS011;502;48.746;9.214;2022-10-13T15:47:22;11.80;;;6.97;;
1026;SDS011;502;48.746;9.214;2022-10-13T15:49:49;7.80;;;7.00;;
1026;SDS011;502;48.746;9.214;2022-10-13T15:52:16;7.47;;;6.70;;